sensor_id;sensor_type;location;lat;lon;timestamp;pressure;altitude;pressure_sealevel;temperature;humidity
58471;BME280;44258;51.288;12.068;2022-12-08T00:01:22;99858.16;;;3.93;65.13
58471;BME280;44258;51.288;12.068;2022-12-08T00:03:49;99859.78;;;3.98;64.78
58471;BME280;44258;51.288;12.068;2022-12-08T00:06:22;99851.88;;;3.95;65.10
58471;BME280;44258;51.288;12.068;2022-12-08T00:09:12;99851.22;;;3.89;64.70
58471;BME280;44258;51.288;12.068;2022-12-08T00:11:56;99843.44;;;3.83;65.00
58471;BME280;44258;51.288;12.068;2022-12-08T00:14:25;99838.00;;;3.86;65.02
58471;BME280;44258;51.288;12.068;2022-12-08T00:16:52;99839.53;;;3.93;64.47
58471;BME280;44258;51.288;12.068;2022-12-08T00:19:19;99836.06;;;3.91;64.68
58471;BME280;44258;51.288;12.068;2022-12-08T00:21:46;99835.56;;;3.80;64.67
58471;BME280;44258;51.288;12.068;2022-12-08T00:24:12;99832.72;;;3.85;64.95
58471;BME280;44258;51.288;12.068;2022-12-08T00:26:39;99824.97;;;3.79;64.76
58471;BME280;44258;51.288;12.068;2022-12-08T00:29:08;99827.75;;;3.76;65.03
58471;BME280;44258;51.288;12.068;2022-12-08T00:31:35;99825.91;;;3.78;64.94
58471;BME280;44258;51.288;12.068;2022-12-08T00:34:01;99822.31;;;3.79;64.96
58471;BME280;44258;51.288;12.068;2022-12-08T00:36:28;99821.13;;;3.87;64.69
58471;BME280;44258;51.288;12.068;2022-12-08T00:38:55;99823.09;;;3.82;64.37
58471;BME280;44258;51.288;12.068;2022-12-08T00:41:23;99824.84;;;3.83;64.50
58471;BME280;44258;51.288;12.068;2022-12-08T00:44:04;99823.91;;;3.84;64.44
58471;BME280;44258;51.288;12.068;2022-12-08T00:46:32;99820.31;;;3.85;64.22
58471;BME280;44258;51.288;12.068;2022-12-08T00:48:59;99820.69;;;3.75;64.05
58471;BME280;44258;51.288;12.068;2022-12-08T00:51:25;99820.19;;;3.65;64.48
58471;BME280;44258;51.288;12.068;2022-12-08T00:53:52;99814.06;;;3.63;64.73
58471;BME280;44258;51.288;12.068;2022-12-08T00:56:18;99813.16;;;3.62;64.81
58471;BME280;44258;51.288;12.068;2022-12-08T00:58:45;99810.41;;;3.65;64.29
58471;BME280;44258;51.288;12.068;2022-12-08T01:01:13;99819.19;;;3.67;64.13
58471;BME280;44258;51.288;12.068;2022-12-08T01:03:42;99815.13;;;3.57;64.58
58471;BME280;44258;51.288;12.068;2022-12-08T01:06:09;99818.44;;;3.64;64.38
58471;BME280;44258;51.288;12.068;2022-12-08T01:08:36;99815.69;;;3.67;64.45
58471;BME280;44258;51.288;12.068;2022-12-08T01:11:15;99814.28;;;3.57;64.58
58471;BME280;44258;51.288;12.068;2022-12-08T01:13:42;99813.97;;;3.64;64.10
58471;BME280;44258;51.288;12.068;2022-12-08T01:16:22;99821.84;;;3.67;64.65
58471;BME280;44258;51.288;12.068;2022-12-08T01:18:50;99821.09;;;3.64;64.37
58471;BME280;44258;51.288;12.068;2022-12-08T01:21:18;99821.03;;;3.65;64.04
58471;BME280;44258;51.288;12.068;2022-12-08T01:23:45;99816.63;;;3.64;64.35
58471;BME280;44258;51.288;12.068;2022-12-08T01:26:14;99809.78;;;3.59;64.37
58471;BME280;44258;51.288;12.068;2022-12-08T01:28:41;99800.84;;;3.60;64.24
58471;BME280;44258;51.288;12.068;2022-12-08T01:31:10;99807.03;;;3.60;64.40
58471;BME280;44258;51.288;12.068;2022-12-08T01:33:38;99798.91;;;3.65;64.32
58471;BME280;44258;51.288;12.068;2022-12-08T01:36:06;99806.81;;;3.66;64.07
58471;BME280;44258;51.288;12.068;2022-12-08T01:38:36;99804.47;;;3.59;64.26
58471;BME280;44258;51.288;12.068;2022-12-08T01:41:03;99807.16;;;3.57;64.03
58471;BME280;44258;51.288;12.068;2022-12-08T01:43:53;99802.16;;;3.48;64.74
58471;BME280;44258;51.288;12.068;2022-12-08T01:46:21;99795.06;;;3.48;64.41
58471;BME280;44258;51.288;12.068;2022-12-08T01:48:49;99795.06;;;3.48;64.60
58471;BME280;44258;51.288;12.068;2022-12-08T01:51:18;99798.63;;;3.47;64.68
58471;BME280;44258;51.288;12.068;2022-12-08T01:53:46;99795.19;;;3.44;64.79
58471;BME280;44258;51.288;12.068;2022-12-08T01:56:18;99784.69;;;3.41;65.05
58471;BME280;44258;51.288;12.068;2022-12-08T01:58:48;99783.88;;;3.39;64.83
58471;BME280;44258;51.288;12.068;2022-12-08T02:01:17;99777.72;;;3.37;65.28
58471;BME280;44258;51.288;12.068;2022-12-08T02:03:46;99785.72;;;3.37;65.05
58471;BME280;44258;51.288;12.068;2022-12-08T02:06:15;99778.38;;;3.43;65.21
58471;BME280;44258;51.288;12.068;2022-12-08T02:08:44;99779.56;;;3.35;65.50
58471;BME280;44258;51.288;12.068;2022-12-08T02:11:12;99781.97;;;3.42;65.25
58471;BME280;44258;51.288;12.068;2022-12-08T02:13:43;99782.06;;;3.39;65.42
58471;BME280;44258;51.288;12.068;2022-12-08T02:16:16;99777.47;;;3.44;65.27
58471;BME280;44258;51.288;12.068;2022-12-08T02:18:59;99771.06;;;3.50;65.38
58471;BME280;44258;51.288;12.068;2022-12-08T02:21:30;99779.03;;;3.50;65.11
58471;BME280;44258;51.288;12.068;2022-12-08T02:24:07;99781.66;;;3.51;65.00
58471;BME280;44258;51.288;12.068;2022-12-08T02:27:07;99773.84;;;3.47;65.37
58471;BME280;44258;51.288;12.068;2022-12-08T02:29:59;99770.94;;;3.55;65.10
58471;BME280;44258;51.288;12.068;2022-12-08T02:35:33;99779.31;;;3.67;64.99
58471;BME280;44258;51.288;12.068;2022-12-08T02:38:07;99772.47;;;3.60;65.15
58471;BME280;44258;51.288;12.068;2022-12-08T02:40:45;99771.06;;;3.50;65.65
58471;BME280;44258;51.288;12.068;2022-12-08T02:43:28;99762.16;;;3.52;65.54
58471;BME280;44258;51.288;12.068;2022-12-08T02:45:58;99767.38;;;3.54;65.40
58471;BME280;44258;51.288;12.068;2022-12-08T02:48:27;99766.34;;;3.33;66.08
58471;BME280;44258;51.288;12.068;2022-12-08T02:50:55;99766.75;;;3.47;65.97
58471;BME280;44258;51.288;12.068;2022-12-08T02:53:22;99762.88;;;3.56;65.70
58471;BME280;44258;51.288;12.068;2022-12-08T02:55:55;99764.94;;;3.48;65.87
58471;BME280;44258;51.288;12.068;2022-12-08T02:58:35;99755.25;;;3.47;65.95
58471;BME280;44258;51.288;12.068;2022-12-08T03:01:22;99753.44;;;3.47;65.70
58471;BME280;44258;51.288;12.068;2022-12-08T03:03:59;99755.84;;;3.55;65.33
58471;BME280;44258;51.288;12.068;2022-12-08T03:06:33;99758.38;;;3.58;65.37
58471;BME280;44258;51.288;12.068;2022-12-08T03:09:09;99751.28;;;3.59;65.23
58471;BME280;44258;51.288;12.068;2022-12-08T03:11:43;99744.22;;;3.58;65.07
58471;BME280;44258;51.288;12.068;2022-12-08T03:14:14;99745.03;;;3.60;65.57
58471;BME280;44258;51.288;12.068;2022-12-08T03:16:44;99732.69;;;3.59;65.32
58471;BME280;44258;51.288;12.068;2022-12-08T03:19:16;99736.06;;;3.62;65.18
58471;BME280;44258;51.288;12.068;2022-12-08T03:21:48;99738.72;;;3.62;64.93
58471;BME280;44258;51.288;12.068;2022-12-08T03:24:16;99737.47;;;3.72;64.61
58471;BME280;44258;51.288;12.068;2022-12-08T03:26:47;99739.25;;;3.72;64.57
58471;BME280;44258;51.288;12.068;2022-12-08T03:29:16;99736.66;;;3.70;65.01
58471;BME280;44258;51.288;12.068;2022-12-08T03:31:49;99728.63;;;3.72;64.45
58471;BME280;44258;51.288;12.068;2022-12-08T03:34:19;99737.22;;;3.79;64.45
58471;BME280;44258;51.288;12.068;2022-12-08T03:36:48;99739.44;;;3.67;64.16
58471;BME280;44258;51.288;12.068;2022-12-08T03:39:15;99728.16;;;3.61;64.51
58471;BME280;44258;51.288;12.068;2022-12-08T03:41:42;99728.09;;;3.62;64.67
58471;BME280;44258;51.288;12.068;2022-12-08T03:44:08;99727.94;;;3.67;64.72
58471;BME280;44258;51.288;12.068;2022-12-08T03:46:35;99723.31;;;3.72;64.39
58471;BME280;44258;51.288;12.068;2022-12-08T03:49:02;99721.50;;;3.72;64.69
58471;BME280;44258;51.288;12.068;2022-12-08T03:51:31;99708.91;;;3.78;64.40
58471;BME280;44258;51.288;12.068;2022-12-08T03:53:59;99716.13;;;3.74;64.08
58471;BME280;44258;51.288;12.068;2022-12-08T03:56:28;99707.13;;;3.78;64.58
58471;BME280;44258;51.288;12.068;2022-12-08T03:58:55;99711.28;;;3.85;63.80
58471;BME280;44258;51.288;12.068;2022-12-08T04:01:22;99708.53;;;3.87;63.75
58471;BME280;44258;51.288;12.068;2022-12-08T04:03:50;99699.69;;;3.86;63.66
58471;BME280;44258;51.288;12.068;2022-12-08T04:06:17;99696.44;;;3.80;64.20
58471;BME280;44258;51.288;12.068;2022-12-08T04:08:44;99696.59;;;3.75;64.32
58471;BME280;44258;51.288;12.068;2022-12-08T04:11:12;99685.31;;;3.68;64.41
58471;BME280;44258;51.288;12.068;2022-12-08T04:13:40;99691.75;;;3.63;64.39
58471;BME280;44258;51.288;12.068;2022-12-08T04:16:07;99687.13;;;3.68;64.24
58471;BME280;44258;51.288;12.068;2022-12-08T04:18:39;99682.91;;;3.62;64.38
58471;BME280;44258;51.288;12.068;2022-12-08T04:21:05;99678.63;;;3.58;64.46
58471;BME280;44258;51.288;12.068;2022-12-08T04:23:32;99682.97;;;3.61;64.41
58471;BME280;44258;51.288;12.068;2022-12-08T04:25:58;99685.16;;;3.49;64.90
58471;BME280;44258;51.288;12.068;2022-12-08T04:28:26;99680.66;;;3.51;65.04
58471;BME280;44258;51.288;12.068;2022-12-08T04:30:54;99678.00;;;3.51;64.97
58471;BME280;44258;51.288;12.068;2022-12-08T04:33:21;99671.53;;;3.59;64.93
58471;BME280;44258;51.288;12.068;2022-12-08T04:35:47;99667.66;;;3.67;64.87
58471;BME280;44258;51.288;12.068;2022-12-08T04:38:14;99674.69;;;3.68;64.60
58471;BME280;44258;51.288;12.068;2022-12-08T04:40:41;99671.31;;;3.65;64.94
58471;BME280;44258;51.288;12.068;2022-12-08T04:43:08;99675.72;;;3.64;64.83
58471;BME280;44258;51.288;12.068;2022-12-08T04:45:38;99675.09;;;3.58;64.69
58471;BME280;44258;51.288;12.068;2022-12-08T04:48:05;99675.09;;;3.58;64.70
58471;BME280;44258;51.288;12.068;2022-12-08T04:50:32;99665.69;;;3.49;64.71
58471;BME280;44258;51.288;12.068;2022-12-08T04:52:58;99670.59;;;3.60;64.62
58471;BME280;44258;51.288;12.068;2022-12-08T04:55:25;99675.50;;;3.70;64.33
58471;BME280;44258;51.288;12.068;2022-12-08T04:57:52;99671.91;;;3.71;63.98
58471;BME280;44258;51.288;12.068;2022-12-08T05:00:18;99665.91;;;3.66;64.08
58471;BME280;44258;51.288;12.068;2022-12-08T05:02:46;99669.78;;;3.58;64.97
58471;BME280;44258;51.288;12.068;2022-12-08T05:05:13;99668.94;;;3.57;64.88
58471;BME280;44258;51.288;12.068;2022-12-08T05:07:41;99673.00;;;3.42;65.04
58471;BME280;44258;51.288;12.068;2022-12-08T05:10:08;99675.22;;;3.29;65.35
58471;BME280;44258;51.288;12.068;2022-12-08T05:12:35;99677.31;;;3.21;65.69
58471;BME280;44258;51.288;12.068;2022-12-08T05:15:01;99677.25;;;3.23;65.60
58471;BME280;44258;51.288;12.068;2022-12-08T05:17:28;99675.28;;;3.28;65.22
58471;BME280;44258;51.288;12.068;2022-12-08T05:19:56;99676.25;;;3.25;65.55
58471;BME280;44258;51.288;12.068;2022-12-08T05:22:23;99673.66;;;3.24;65.60
58471;BME280;44258;51.288;12.068;2022-12-08T05:24:49;99675.22;;;3.29;65.29
58471;BME280;44258;51.288;12.068;2022-12-08T05:27:16;99678.66;;;3.33;65.35
58471;BME280;44258;51.288;12.068;2022-12-08T05:29:43;99674.59;;;3.23;65.44
58471;BME280;44258;51.288;12.068;2022-12-08T05:32:09;99679.88;;;3.24;65.57
58471;BME280;44258;51.288;12.068;2022-12-08T05:34:36;99672.94;;;3.20;65.59
58471;BME280;44258;51.288;12.068;2022-12-08T05:37:04;99677.25;;;3.23;65.64
58471;BME280;44258;51.288;12.068;2022-12-08T05:39:31;99670.91;;;3.27;65.22
58471;BME280;44258;51.288;12.068;2022-12-08T05:41:57;99663.34;;;3.16;65.88
58471;BME280;44258;51.288;12.068;2022-12-08T05:44:24;99674.59;;;3.23;65.74
58471;BME280;44258;51.288;12.068;2022-12-08T05:46:51;99666.69;;;3.21;65.57
58471;BME280;44258;51.288;12.068;2022-12-08T05:49:18;99663.69;;;3.05;65.84
58471;BME280;44258;51.288;12.068;2022-12-08T05:51:44;99657.13;;;3.16;65.94
58471;BME280;44258;51.288;12.068;2022-12-08T05:54:13;99652.00;;;3.11;65.39
58471;BME280;44258;51.288;12.068;2022-12-08T05:56:40;99655.00;;;3.02;65.86
58471;BME280;44258;51.288;12.068;2022-12-08T05:59:07;99659.56;;;2.98;66.24
58471;BME280;44258;51.288;12.068;2022-12-08T06:01:34;99651.00;;;2.90;66.66
58471;BME280;44258;51.288;12.068;2022-12-08T06:04:02;99651.00;;;2.90;66.76
58471;BME280;44258;51.288;12.068;2022-12-08T06:06:29;99650.81;;;2.95;66.55
58471;BME280;44258;51.288;12.068;2022-12-08T06:08:56;99657.94;;;2.94;66.59
58471;BME280;44258;51.288;12.068;2022-12-08T06:11:27;99645.84;;;2.85;66.83
58471;BME280;44258;51.288;12.068;2022-12-08T06:13:54;99649.03;;;2.95;66.64
58471;BME280;44258;51.288;12.068;2022-12-08T06:16:22;99650.66;;;2.99;66.73
58471;BME280;44258;51.288;12.068;2022-12-08T06:18:49;99661.75;;;3.10;66.71
58471;BME280;44258;51.288;12.068;2022-12-08T06:21:17;99659.69;;;3.19;66.12
58471;BME280;44258;51.288;12.068;2022-12-08T06:23:46;99660.69;;;3.16;66.12
58471;BME280;44258;51.288;12.068;2022-12-08T06:26:14;99658.84;;;3.18;66.09
58471;BME280;44258;51.288;12.068;2022-12-08T06:28:42;99658.88;;;3.17;66.37
58471;BME280;44258;51.288;12.068;2022-12-08T06:31:14;99654.44;;;3.17;66.06
58471;BME280;44258;51.288;12.068;2022-12-08T06:33:41;99654.56;;;3.14;66.01
58471;BME280;44258;51.288;12.068;2022-12-08T06:36:10;99656.84;;;3.00;66.33
58471;BME280;44258;51.288;12.068;2022-12-08T06:38:37;99655.81;;;3.04;66.20
58471;BME280;44258;51.288;12.068;2022-12-08T06:41:04;99652.50;;;2.97;66.47
58471;BME280;44258;51.288;12.068;2022-12-08T06:43:31;99653.59;;;2.91;66.37
58471;BME280;44258;51.288;12.068;2022-12-08T06:46:00;99646.38;;;2.95;66.39
58471;BME280;44258;51.288;12.068;2022-12-08T06:48:26;99653.97;;;3.06;66.41
58471;BME280;44258;51.288;12.068;2022-12-08T06:50:54;99648.56;;;3.07;65.93
58471;BME280;44258;51.288;12.068;2022-12-08T06:53:20;99645.88;;;3.09;65.92
58471;BME280;44258;51.288;12.068;2022-12-08T06:55:51;99651.34;;;3.04;66.02
58471;BME280;44258;51.288;12.068;2022-12-08T06:58:19;99663.47;;;3.11;65.73
58471;BME280;44258;51.288;12.068;2022-12-08T07:00:46;99670.38;;;3.17;65.49
58471;BME280;44258;51.288;12.068;2022-12-08T07:03:16;99666.72;;;3.20;65.39
58471;BME280;44258;51.288;12.068;2022-12-08T07:05:43;99660.38;;;3.24;65.80
58471;BME280;44258;51.288;12.068;2022-12-08T07:08:09;99671.66;;;3.30;65.06
58471;BME280;44258;51.288;12.068;2022-12-08T07:10:37;99665.63;;;3.25;65.14
58471;BME280;44258;51.288;12.068;2022-12-08T07:13:04;99663.75;;;3.29;65.21
58471;BME280;44258;51.288;12.068;2022-12-08T07:15:30;99663.69;;;3.30;64.88
58471;BME280;44258;51.288;12.068;2022-12-08T07:17:57;99658.53;;;3.26;65.06
58471;BME280;44258;51.288;12.068;2022-12-08T07:20:25;99664.19;;;3.17;65.56
58471;BME280;44258;51.288;12.068;2022-12-08T07:22:52;99658.84;;;3.18;65.66
58471;BME280;44258;51.288;12.068;2022-12-08T07:25:19;99664.25;;;3.15;65.70
58471;BME280;44258;51.288;12.068;2022-12-08T07:27:46;99663.16;;;3.21;65.35
58471;BME280;44258;51.288;12.068;2022-12-08T07:30:14;99664.28;;;3.13;65.75
58471;BME280;44258;51.288;12.068;2022-12-08T07:32:43;99653.63;;;3.15;65.32
58471;BME280;44258;51.288;12.068;2022-12-08T07:35:10;99663.03;;;3.24;65.34
58471;BME280;44258;51.288;12.068;2022-12-08T07:37:38;99664.06;;;3.20;65.22
58471;BME280;44258;51.288;12.068;2022-12-08T07:40:08;99660.81;;;3.11;65.37
58471;BME280;44258;51.288;12.068;2022-12-08T07:42:36;99659.88;;;3.14;65.03
58471;BME280;44258;51.288;12.068;2022-12-08T07:45:03;99657.84;;;3.21;64.79
58471;BME280;44258;51.288;12.068;2022-12-08T07:47:32;99654.84;;;3.30;64.99
58471;BME280;44258;51.288;12.068;2022-12-08T07:49:58;99656.34;;;3.37;64.68
58471;BME280;44258;51.288;12.068;2022-12-08T07:52:25;99661.66;;;3.37;64.41
58471;BME280;44258;51.288;12.068;2022-12-08T07:54:53;99662.38;;;3.42;64.27
58471;BME280;44258;51.288;12.068;2022-12-08T07:57:20;99663.13;;;3.46;64.53
58471;BME280;44258;51.288;12.068;2022-12-08T07:59:47;99656.78;;;3.50;64.17
58471;BME280;44258;51.288;12.068;2022-12-08T08:02:17;99664.09;;;3.43;64.35
58471;BME280;44258;51.288;12.068;2022-12-08T08:04:48;99660.47;;;3.46;64.48
58471;BME280;44258;51.288;12.068;2022-12-08T08:07:15;99670.03;;;3.51;64.49
58471;BME280;44258;51.288;12.068;2022-12-08T08:09:42;99660.16;;;3.55;64.06
58471;BME280;44258;51.288;12.068;2022-12-08T08:12:13;99666.28;;;3.57;64.11
58471;BME280;44258;51.288;12.068;2022-12-08T08:14:40;99668.78;;;3.60;64.09
58471;BME280;44258;51.288;12.068;2022-12-08T08:17:06;99660.19;;;3.53;64.38
58471;BME280;44258;51.288;12.068;2022-12-08T08:19:37;99668.56;;;3.66;63.70
58471;BME280;44258;51.288;12.068;2022-12-08T08:22:03;99664.94;;;3.69;64.19
58471;BME280;44258;51.288;12.068;2022-12-08T08:24:30;99662.53;;;3.63;63.76
58471;BME280;44258;51.288;12.068;2022-12-08T08:26:57;99664.59;;;3.55;64.12
58471;BME280;44258;51.288;12.068;2022-12-08T08:29:25;99660.00;;;3.58;63.96
58471;BME280;44258;51.288;12.068;2022-12-08T08:31:51;99660.66;;;3.65;64.01
58471;BME280;44258;51.288;12.068;2022-12-08T08:34:18;99664.47;;;3.58;64.21
58471;BME280;44258;51.288;12.068;2022-12-08T08:36:45;99663.91;;;3.73;64.11
58471;BME280;44258;51.288;12.068;2022-12-08T08:39:12;99669.84;;;3.80;63.65
58471;BME280;44258;51.288;12.068;2022-12-08T08:41:39;99656.59;;;3.78;63.21
58471;BME280;44258;51.288;12.068;2022-12-08T08:44:06;99661.72;;;3.83;63.30
58471;BME280;44258;51.288;12.068;2022-12-08T08:46:34;99660.63;;;3.88;63.18
58471;BME280;44258;51.288;12.068;2022-12-08T08:49:00;99657.19;;;3.85;63.37
58471;BME280;44258;51.288;12.068;2022-12-08T08:51:27;99660.50;;;3.91;63.44
58471;BME280;44258;51.288;12.068;2022-12-08T08:53:54;99658.13;;;4.07;62.94
58471;BME280;44258;51.288;12.068;2022-12-08T08:56:21;99664.25;;;4.09;62.75
58471;BME280;44258;51.288;12.068;2022-12-08T08:58:48;99657.53;;;4.21;62.62
58471;BME280;44258;51.288;12.068;2022-12-08T09:01:16;99656.66;;;4.21;62.51
58471;BME280;44258;51.288;12.068;2022-12-08T09:03:44;99659.22;;;4.24;62.49
58471;BME280;44258;51.288;12.068;2022-12-08T09:06:12;99648.69;;;4.21;62.09
58471;BME280;44258;51.288;12.068;2022-12-08T09:08:39;99650.91;;;4.31;62.17
58471;BME280;44258;51.288;12.068;2022-12-08T09:11:06;99650.63;;;4.38;61.58
58471;BME280;44258;51.288;12.068;2022-12-08T09:13:33;99651.19;;;4.46;61.71
58471;BME280;44258;51.288;12.068;2022-12-08T09:16:00;99652.94;;;4.47;61.63
58471;BME280;44258;51.288;12.068;2022-12-08T09:18:28;99656.09;;;4.57;61.97
58471;BME280;44258;51.288;12.068;2022-12-08T09:20:59;99652.22;;;4.64;61.72
58471;BME280;44258;51.288;12.068;2022-12-08T09:23:28;99646.34;;;4.76;61.04
58471;BME280;44258;51.288;12.068;2022-12-08T09:25:55;99647.69;;;4.66;61.38
58471;BME280;44258;51.288;12.068;2022-12-08T09:28:21;99646.41;;;4.54;61.66
58471;BME280;44258;51.288;12.068;2022-12-08T09:30:50;99645.25;;;4.39;61.67
58471;BME280;44258;51.288;12.068;2022-12-08T09:33:17;99641.84;;;4.36;62.26
58471;BME280;44258;51.288;12.068;2022-12-08T09:35:43;99640.44;;;4.49;61.74
58471;BME280;44258;51.288;12.068;2022-12-08T09:38:11;99637.44;;;4.57;61.62
58471;BME280;44258;51.288;12.068;2022-12-08T09:40:43;99640.03;;;4.58;61.31
58471;BME280;44258;51.288;12.068;2022-12-08T09:43:23;99640.75;;;4.62;61.02
58471;BME280;44258;51.288;12.068;2022-12-08T09:45:52;99636.78;;;4.72;60.85
58471;BME280;44258;51.288;12.068;2022-12-08T09:48:22;99631.06;;;4.81;61.01
58471;BME280;44258;51.288;12.068;2022-12-08T09:50:52;99634.78;;;4.77;60.90
58471;BME280;44258;51.288;12.068;2022-12-08T09:53:25;99630.00;;;4.85;60.92
58471;BME280;44258;51.288;12.068;2022-12-08T09:55:55;99627.31;;;4.85;61.16
58471;BME280;44258;51.288;12.068;2022-12-08T09:58:26;99624.59;;;4.87;61.10
58471;BME280;44258;51.288;12.068;2022-12-08T10:00:56;99623.03;;;5.02;60.55
58471;BME280;44258;51.288;12.068;2022-12-08T10:03:26;99617.19;;;4.93;60.76
58471;BME280;44258;51.288;12.068;2022-12-08T10:05:59;99616.25;;;4.94;60.67
58471;BME280;44258;51.288;12.068;2022-12-08T10:08:40;99617.19;;;4.93;60.75
58471;BME280;44258;51.288;12.068;2022-12-08T10:11:11;99619.25;;;5.07;60.70
58471;BME280;44258;51.288;12.068;2022-12-08T10:13:45;99611.69;;;5.17;60.51
58471;BME280;44258;51.288;12.068;2022-12-08T10:16:21;99606.56;;;5.31;60.32
58471;BME280;44258;51.288;12.068;2022-12-08T10:18:56;99603.06;;;5.31;60.14
58471;BME280;44258;51.288;12.068;2022-12-08T10:21:27;99596.47;;;5.19;60.32
58471;BME280;44258;51.288;12.068;2022-12-08T10:24:01;99599.09;;;5.21;60.45
58471;BME280;44258;51.288;12.068;2022-12-08T10:26:29;99602.94;;;5.34;60.14
58471;BME280;44258;51.288;12.068;2022-12-08T10:28:57;99600.53;;;5.28;59.87
58471;BME280;44258;51.288;12.068;2022-12-08T10:31:25;99602.13;;;5.32;59.95
58471;BME280;44258;51.288;12.068;2022-12-08T10:33:56;99590.34;;;5.38;59.68
58471;BME280;44258;51.288;12.068;2022-12-08T10:36:43;99593.47;;;5.27;60.02
58471;BME280;44258;51.288;12.068;2022-12-08T10:39:28;99584.72;;;5.44;60.11
58471;BME280;44258;51.288;12.068;2022-12-08T10:41:59;99578.88;;;5.54;60.16
58471;BME280;44258;51.288;12.068;2022-12-08T10:44:26;99580.56;;;5.56;59.83
58471;BME280;44258;51.288;12.068;2022-12-08T10:46:54;99583.03;;;5.41;59.04
58471;BME280;44258;51.288;12.068;2022-12-08T10:49:25;99576.50;;;5.48;59.29
58471;BME280;44258;51.288;12.068;2022-12-08T10:51:53;99576.03;;;5.58;59.01
58471;BME280;44258;51.288;12.068;2022-12-08T10:54:28;99575.75;;;5.45;59.15
58471;BME280;44258;51.288;12.068;2022-12-08T10:56:57;99578.50;;;5.62;59.00
58471;BME280;44258;51.288;12.068;2022-12-08T10:59:26;99573.66;;;5.70;59.05
58471;BME280;44258;51.288;12.068;2022-12-08T11:01:55;99565.22;;;5.61;59.01
58471;BME280;44258;51.288;12.068;2022-12-08T11:04:25;99562.59;;;5.78;59.09
58471;BME280;44258;51.288;12.068;2022-12-08T11:06:55;99555.69;;;5.93;58.81
58471;BME280;44258;51.288;12.068;2022-12-08T11:09:35;99554.50;;;5.99;59.17
58471;BME280;44258;51.288;12.068;2022-12-08T11:12:07;99548.56;;;5.93;58.63
58471;BME280;44258;51.288;12.068;2022-12-08T11:14:46;99553.13;;;5.90;58.95
58471;BME280;44258;51.288;12.068;2022-12-08T11:17:14;99556.66;;;5.90;57.86
58471;BME280;44258;51.288;12.068;2022-12-08T11:19:43;99550.53;;;5.88;58.30
58471;BME280;44258;51.288;12.068;2022-12-08T11:22:21;99548.03;;;5.85;58.39
58471;BME280;44258;51.288;12.068;2022-12-08T11:25:01;99544.09;;;5.75;57.74
58471;BME280;44258;51.288;12.068;2022-12-08T11:27:28;99540.47;;;5.76;58.00
58471;BME280;44258;51.288;12.068;2022-12-08T11:29:58;99535.44;;;5.70;58.53
58471;BME280;44258;51.288;12.068;2022-12-08T11:32:24;99539.78;;;5.53;59.09
58471;BME280;44258;51.288;12.068;2022-12-08T11:34:54;99538.88;;;5.54;58.68
58471;BME280;44258;51.288;12.068;2022-12-08T11:37:24;99526.81;;;5.65;59.10
58471;BME280;44258;51.288;12.068;2022-12-08T11:39:54;99530.03;;;5.71;58.77
58471;BME280;44258;51.288;12.068;2022-12-08T11:42:29;99532.75;;;5.70;58.45
58471;BME280;44258;51.288;12.068;2022-12-08T11:45:00;99527.53;;;5.68;58.55
58471;BME280;44258;51.288;12.068;2022-12-08T11:47:33;99534.84;;;5.46;59.29
58471;BME280;44258;51.288;12.068;2022-12-08T11:50:15;99529.91;;;5.74;58.63
58471;BME280;44258;51.288;12.068;2022-12-08T11:52:45;99532.66;;;5.54;59.31
58471;BME280;44258;51.288;12.068;2022-12-08T11:55:25;99527.75;;;5.45;58.71
58471;BME280;44258;51.288;12.068;2022-12-08T11:58:01;99530.66;;;5.40;59.20
58471;BME280;44258;51.288;12.068;2022-12-08T12:00:30;99528.91;;;5.58;58.85
58471;BME280;44258;51.288;12.068;2022-12-08T12:03:01;99521.16;;;5.71;58.60
58471;BME280;44258;51.288;12.068;2022-12-08T12:05:41;99522.97;;;5.70;58.51
58471;BME280;44258;51.288;12.068;2022-12-08T12:08:21;99527.84;;;5.80;58.43
58471;BME280;44258;51.288;12.068;2022-12-08T12:11:04;99527.44;;;5.70;58.06
58471;BME280;44258;51.288;12.068;2022-12-08T12:13:53;99526.03;;;5.63;58.50
58471;BME280;44258;51.288;12.068;2022-12-08T12:16:45;99526.50;;;5.71;58.33
58471;BME280;44258;51.288;12.068;2022-12-08T12:19:16;99523.47;;;5.79;58.13
58471;BME280;44258;51.288;12.068;2022-12-08T12:21:47;99524.38;;;5.78;58.32
58471;BME280;44258;51.288;12.068;2022-12-08T12:24:17;99527.00;;;5.79;58.29
58471;BME280;44258;51.288;12.068;2022-12-08T12:26:54;99525.34;;;5.77;58.15
58471;BME280;44258;51.288;12.068;2022-12-08T12:29:25;99529.41;;;5.84;58.03
58471;BME280;44258;51.288;12.068;2022-12-08T12:31:55;99523.53;;;5.41;58.72
58471;BME280;44258;51.288;12.068;2022-12-08T12:34:24;99517.22;;;5.61;58.09
58471;BME280;44258;51.288;12.068;2022-12-08T12:36:54;99524.56;;;5.56;57.97
58471;BME280;44258;51.288;12.068;2022-12-08T12:39:25;99524.00;;;5.49;58.19
58471;BME280;44258;51.288;12.068;2022-12-08T12:41:55;99521.13;;;5.53;58.00
58471;BME280;44258;51.288;12.068;2022-12-08T12:44:44;99515.66;;;5.57;57.96
58471;BME280;44258;51.288;12.068;2022-12-08T12:50:07;99511.22;;;5.38;58.33
58471;BME280;44258;51.288;12.068;2022-12-08T12:52:46;99513.22;;;5.33;58.40
58471;BME280;44258;51.288;12.068;2022-12-08T12:55:26;99519.16;;;5.40;59.05
58471;BME280;44258;51.288;12.068;2022-12-08T12:57:55;99508.88;;;5.49;58.44
58471;BME280;44258;51.288;12.068;2022-12-08T13:00:25;99510.91;;;5.44;58.79
58471;BME280;44258;51.288;12.068;2022-12-08T13:02:53;99516.09;;;5.47;58.83
58471;BME280;44258;51.288;12.068;2022-12-08T13:05:22;99504.31;;;5.51;58.84
58471;BME280;44258;51.288;12.068;2022-12-08T13:07:53;99511.63;;;5.48;58.61
58471;BME280;44258;51.288;12.068;2022-12-08T13:10:23;99504.56;;;5.47;58.58
58471;BME280;44258;51.288;12.068;2022-12-08T13:13:03;99501.16;;;5.43;58.59
58471;BME280;44258;51.288;12.068;2022-12-08T13:15:39;99503.69;;;5.27;58.32
58471;BME280;44258;51.288;12.068;2022-12-08T13:18:17;99504.00;;;5.40;58.57
58471;BME280;44258;51.288;12.068;2022-12-08T13:20:50;99495.31;;;5.18;59.60